Time;durP1;ratioP1;P1;durP2;ratioP2;P2;SDS_P1;SDS_P2;PMS_P1;PMS_P2;Temp;Humidity;BMP_temperature;BMP_pressure;BME280_temperature;BME280_humidity;BME280_pressure;Samples;Min_cycle;Max_cycle;Signal;HPM_P1;HPM_P2
2024/04/06 00:02:24;;;;;;;6.13;2.30;;;18.00;77.80;;;;;;5029371;28;20474;-80
2024/04/06 00:04:49;;;;;;;6.97;2.30;;;18.00;77.80;;;;;;5028201;28;20033;-80
2024/04/06 00:07:15;;;;;;;5.83;2.23;;;18.00;77.70;;;;;;5019740;28;20041;-79
2024/04/06 00:09:41;;;;;;;7.67;2.83;;;18.00;77.80;;;;;;5020735;28;20076;-79
2024/04/06 00:12:07;;;;;;;5.45;2.15;;;18.00;77.80;;;;;;5020540;28;20025;-80
2024/04/06 00:14:33;;;;;;;6.22;2.28;;;18.00;77.80;;;;;;5028144;28;20037;-80
2024/04/06 00:16:59;;;;;;;8.93;2.63;;;18.00;77.80;;;;;;5029968;28;20087;-80
2024/04/06 00:19:25;;;;;;;5.27;2.23;;;18.00;77.70;;;;;;5022121;28;20536;-80
2024/04/06 00:21:50;;;;;;;7.30;2.10;;;18.00;77.80;;;;;;5024087;28;20029;-80
2024/04/06 00:24:17;;;;;;;5.33;2.17;;;18.00;77.80;;;;;;5023623;28;20422;-79
2024/04/06 00:26:44;;;;;;;9.20;2.60;;;18.00;77.80;;;;;;5020841;28;20029;-79
2024/04/06 00:29:09;;;;;;;6.18;1.92;;;18.00;77.80;;;;;;5026198;28;20029;-79
2024/04/06 00:31:35;;;;;;;8.33;2.03;;;18.00;77.70;;;;;;5019849;28;20446;-80
2024/04/06 00:34:02;;;;;;;6.35;1.92;;;17.90;77.70;;;;;;5013139;28;20052;-80
2024/04/06 00:36:32;;;;;;;7.13;2.40;;;17.90;77.70;;;;;;5024342;28;20467;-80
2024/04/06 00:38:58;;;;;;;5.13;2.17;;;17.90;77.70;;;;;;5022451;28;20079;-79
2024/04/06 00:41:25;;;;;;;5.75;1.75;;;17.90;77.70;;;;;;5020911;28;20030;-80
2024/04/06 00:43:51;;;;;;;5.05;2.22;;;17.90;77.70;;;;;;5028176;28;20075;-79
2024/04/06 00:46:17;;;;;;;5.18;1.73;;;17.90;77.70;;;;;;5019860;28;20062;-80
2024/04/06 00:48:46;;;;;;;7.68;2.15;;;17.90;77.70;;;;;;5026500;28;20022;-80
2024/04/06 00:51:12;;;;;;;7.85;2.30;;;17.90;77.70;;;;;;5028431;28;20033;-79
2024/04/06 00:53:37;;;;;;;5.35;1.70;;;17.90;77.70;;;;;;5025113;28;20026;-80
2024/04/06 00:56:04;;;;;;;5.93;1.90;;;17.90;77.80;;;;;;5023726;28;20030;-80
2024/04/06 00:58:30;;;;;;;6.28;2.30;;;17.90;77.70;;;;;;5025969;28;20387;-80
2024/04/06 01:00:56;;;;;;;3.88;1.67;;;17.90;77.80;;;;;;5018362;28;20538;-79
2024/04/06 01:03:22;;;;;;;7.13;2.50;;;17.90;77.80;;;;;;5023403;28;20025;-80
2024/04/06 01:05:48;;;;;;;6.90;1.80;;;17.90;77.80;;;;;;5025563;28;20036;-79
2024/04/06 01:08:13;;;;;;;6.73;2.17;;;17.90;77.70;;;;;;5020708;28;20033;-80
2024/04/06 01:10:40;;;;;;;5.87;1.93;;;17.80;77.70;;;;;;5027738;28;20173;-80
2024/04/06 01:13:06;;;;;;;7.70;2.22;;;17.90;77.60;;;;;;5029730;28;20348;-80
2024/04/06 01:15:34;;;;;;;6.40;1.90;;;17.90;77.70;;;;;;5026025;28;20036;-79
2024/04/06 01:18:01;;;;;;;6.20;2.13;;;17.80;77.60;;;;;;5024245;28;20026;-80
2024/04/06 01:20:28;;;;;;;4.95;1.50;;;17.80;77.60;;;;;;5019939;28;20049;-79
2024/04/06 01:22:54;;;;;;;4.53;1.70;;;17.80;77.60;;;;;;5017003;28;20113;-80
2024/04/06 01:25:20;;;;;;;3.53;1.70;;;17.80;77.70;;;;;;5027623;28;20161;-78
2024/04/06 01:27:46;;;;;;;4.30;1.67;;;17.80;77.70;;;;;;5029056;28;20382;-79
2024/04/06 01:30:15;;;;;;;3.90;1.70;;;17.80;77.70;;;;;;5023850;28;20267;-80
2024/04/06 01:32:52;;;;;;;5.40;1.52;;;17.80;77.70;;;;;;5026635;28;20057;-80
2024/04/06 01:35:18;;;;;;;5.45;1.90;;;17.80;77.80;;;;;;5018907;28;20025;-80
2024/04/06 01:37:44;;;;;;;6.93;1.50;;;17.80;77.70;;;;;;5018562;28;20079;-79
2024/04/06 01:40:11;;;;;;;4.72;1.60;;;17.80;77.70;;;;;;5016838;28;20034;-79
2024/04/06 01:42:38;;;;;;;3.97;1.25;;;17.80;77.70;;;;;;5029391;28;20072;-80
2024/04/06 01:45:07;;;;;;;6.38;1.88;;;17.80;77.70;;;;;;5028451;28;20029;-79
2024/04/06 01:47:33;;;;;;;4.80;1.60;;;17.80;77.80;;;;;;5023481;28;20482;-79
2024/04/06 01:50:02;;;;;;;4.03;1.43;;;17.80;77.70;;;;;;5021425;28;20078;-81
2024/04/06 01:52:28;;;;;;;3.92;1.52;;;17.80;77.70;;;;;;5021462;28;20028;-79
2024/04/06 01:54:53;;;;;;;5.20;1.47;;;17.80;77.70;;;;;;5025940;28;20026;-80
2024/04/06 01:57:19;;;;;;;4.70;1.60;;;17.80;77.70;;;;;;5017304;28;20044;-79
2024/04/06 01:59:46;;;;;;;3.27;1.40;;;17.70;77.70;;;;;;5028045;28;20809;-80
2024/04/06 02:02:12;;;;;;;5.00;1.70;;;17.80;77.60;;;;;;5025516;28;20014;-79
2024/04/06 02:04:41;;;;;;;6.10;1.45;;;17.80;77.60;;;;;;5014403;28;20117;-80
2024/04/06 02:07:08;;;;;;;3.17;1.20;;;17.80;77.60;;;;;;5029488;28;20148;-79
2024/04/06 02:09:34;;;;;;;5.25;1.33;;;17.70;77.70;;;;;;5025239;28;20025;-80
2024/04/06 02:12:00;;;;;;;4.77;1.33;;;17.70;77.70;;;;;;5028638;28;20026;-78
2024/04/06 02:14:26;;;;;;;4.15;1.52;;;17.70;77.60;;;;;;5027584;28;20033;-79
2024/04/06 02:16:52;;;;;;;6.35;1.63;;;17.70;77.70;;;;;;5024567;28;20525;-79
2024/04/06 02:19:17;;;;;;;2.27;1.30;;;17.70;77.70;;;;;;5023976;28;20407;-78
2024/04/06 02:21:43;;;;;;;3.53;1.73;;;17.70;77.70;;;;;;5026578;28;20353;-79
2024/04/06 02:24:09;;;;;;;2.67;1.57;;;17.70;77.70;;;;;;5019458;28;20033;-79
2024/04/06 02:26:36;;;;;;;4.50;1.50;;;17.70;77.80;;;;;;5027774;28;20277;-79
2024/04/06 02:29:02;;;;;;;3.70;1.40;;;17.70;77.70;;;;;;5027551;28;20013;-79
2024/04/06 02:31:28;;;;;;;4.00;1.50;;;17.70;77.80;;;;;;5025943;28;20497;-79
2024/04/06 02:33:53;;;;;;;2.60;1.10;;;17.70;77.80;;;;;;5022581;28;20270;-79
2024/04/06 02:36:19;;;;;;;3.80;1.67;;;17.70;77.80;;;;;;5027155;28;20033;-79
2024/04/06 02:38:47;;;;;;;3.00;1.30;;;17.70;77.80;;;;;;5027011;28;20038;-79
2024/04/06 02:41:13;;;;;;;1.92;1.20;;;17.70;77.80;;;;;;5027076;28;20770;-79
2024/04/06 02:43:39;;;;;;;4.33;1.27;;;17.70;77.80;;;;;;5030013;28;20053;-80
2024/04/06 02:46:04;;;;;;;3.88;1.38;;;17.70;77.80;;;;;;5025110;28;20034;-79
2024/04/06 02:48:30;;;;;;;5.63;1.47;;;17.70;77.70;;;;;;5021261;28;20041;-80
2024/04/06 02:50:56;;;;;;;5.47;1.70;;;17.70;77.80;;;;;;5030754;28;20443;-79
2024/04/06 02:53:22;;;;;;;2.07;1.10;;;17.70;77.80;;;;;;5028096;28;20022;-80
2024/04/06 02:55:48;;;;;;;4.30;1.60;;;17.70;77.70;;;;;;5030579;28;20033;-80
2024/04/06 02:58:14;;;;;;;1.93;1.20;;;17.60;77.70;;;;;;5023045;28;20270;-80
2024/04/06 03:00:39;;;;;;;1.83;1.13;;;17.60;77.80;;;;;;5024740;28;20030;-78
2024/04/06 03:03:05;;;;;;;4.32;1.50;;;17.60;77.80;;;;;;5015538;28;20030;-79
2024/04/06 03:05:31;;;;;;;2.50;1.27;;;17.60;77.80;;;;;;5025939;28;20026;-79
2024/04/06 03:07:58;;;;;;;3.37;1.37;;;17.60;77.70;;;;;;5030155;28;20041;-80
2024/04/06 03:10:23;;;;;;;4.55;1.58;;;17.60;77.80;;;;;;5030319;28;20109;-80
2024/04/06 03:12:49;;;;;;;2.87;1.13;;;17.60;77.80;;;;;;5022846;28;20136;-80
2024/04/06 03:15:15;;;;;;;2.83;1.30;;;17.60;77.80;;;;;;5023283;28;20033;-79
2024/04/06 03:17:41;;;;;;;2.73;1.30;;;17.60;77.90;;;;;;5022334;28;20724;-79
2024/04/06 03:20:08;;;;;;;3.10;1.23;;;17.60;77.90;;;;;;5027110;28;20476;-80
2024/04/06 03:22:34;;;;;;;3.55;1.45;;;17.60;77.90;;;;;;5028820;28;20120;-80
2024/04/06 03:25:00;;;;;;;2.88;1.40;;;17.60;77.90;;;;;;5031874;28;20518;-79
2024/04/06 03:27:26;;;;;;;3.27;1.50;;;17.50;77.90;;;;;;5019008;28;20041;-79
2024/04/06 03:29:51;;;;;;;4.53;1.35;;;17.50;77.90;;;;;;5022964;28;20026;-80
2024/04/06 03:32:18;;;;;;;4.40;1.47;;;17.60;78.00;;;;;;5027797;28;20100;-79
2024/04/06 03:34:43;;;;;;;3.25;1.25;;;17.50;77.80;;;;;;5022650;28;20134;-79
2024/04/06 03:37:09;;;;;;;2.33;1.17;;;17.50;77.90;;;;;;5020229;28;20805;-78
2024/04/06 03:39:35;;;;;;;1.50;1.00;;;17.50;77.90;;;;;;5025423;28;20350;-80
2024/04/06 03:42:01;;;;;;;5.43;1.30;;;17.50;77.90;;;;;;5018710;28;20108;-79
2024/04/06 03:44:28;;;;;;;2.38;1.13;;;17.50;77.90;;;;;;5028801;28;20410;-80
2024/04/06 03:46:54;;;;;;;3.20;1.25;;;17.50;77.90;;;;;;5023836;28;20033;-80
2024/04/06 03:49:20;;;;;;;2.80;1.10;;;17.50;78.00;;;;;;5030701;28;20029;-79
2024/04/06 03:51:45;;;;;;;4.30;1.53;;;17.50;78.00;;;;;;5019532;28;20125;-80
2024/04/06 03:54:11;;;;;;;3.50;1.10;;;17.50;77.90;;;;;;5030485;28;20083;-79
2024/04/06 03:56:37;;;;;;;4.07;1.33;;;17.50;78.00;;;;;;5030710;28;20033;-79
2024/04/06 03:59:03;;;;;;;3.87;1.27;;;17.50;78.00;;;;;;5028290;28;20109;-81
2024/04/06 04:01:28;;;;;;;5.60;1.35;;;17.50;78.00;;;;;;5022902;28;20033;-78
2024/04/06 04:03:54;;;;;;;2.73;1.37;;;17.50;78.10;;;;;;5030602;28;20037;-79
2024/04/06 04:06:20;;;;;;;4.97;1.50;;;17.50;78.00;;;;;;5028766;28;20022;-80
2024/04/06 04:08:46;;;;;;;4.03;1.30;;;17.50;78.00;;;;;;5025149;28;20442;-79
2024/04/06 04:11:12;;;;;;;4.50;1.40;;;17.50;78.00;;;;;;5028131;28;20053;-80
2024/04/06 04:13:38;;;;;;;1.73;0.80;;;17.50;78.00;;;;;;5026511;28;20490;-79
2024/04/06 04:16:05;;;;;;;3.10;1.35;;;17.50;78.00;;;;;;5020907;28;20072;-79
2024/04/06 04:18:31;;;;;;;3.70;1.23;;;17.50;78.00;;;;;;5023226;28;20029;-79
2024/04/06 04:20:57;;;;;;;3.50;1.10;;;17.50;78.00;;;;;;5025190;28;20026;-79
2024/04/06 04:23:22;;;;;;;3.70;1.00;;;17.50;78.00;;;;;;5024794;28;20117;-84
2024/04/06 04:25:49;;;;;;;2.90;1.37;;;17.50;78.00;;;;;;5027962;28;20120;-79
2024/04/06 04:28:14;;;;;;;3.20;1.30;;;17.50;78.00;;;;;;5031305;28;20030;-79
2024/04/06 04:30:41;;;;;;;1.93;1.17;;;17.50;78.00;;;;;;5015465;28;20037;-79
2024/04/06 04:33:07;;;;;;;1.80;1.00;;;17.50;78.00;;;;;;5024203;28;20083;-79
2024/04/06 04:35:33;;;;;;;1.38;0.90;;;17.50;77.90;;;;;;5027087;28;20390;-79
2024/04/06 04:37:59;;;;;;;2.73;1.13;;;17.50;77.90;;;;;;5019971;28;20032;-79
2024/04/06 04:40:25;;;;;;;3.53;1.20;;;17.40;78.00;;;;;;5029560;28;20036;-79
2024/04/06 04:42:51;;;;;;;2.30;0.80;;;17.40;78.00;;;;;;5024648;28;20894;-79
2024/04/06 04:45:17;;;;;;;1.60;1.03;;;17.40;78.00;;;;;;5024824;28;20025;-79
2024/04/06 04:47:42;;;;;;;2.97;1.20;;;17.40;78.00;;;;;;5021355;28;20184;-79
2024/04/06 04:50:09;;;;;;;3.20;0.90;;;17.40;78.00;;;;;;5027696;28;20032;-80
2024/04/06 04:52:35;;;;;;;1.95;1.08;;;17.40;78.00;;;;;;5021097;28;20040;-80
2024/04/06 04:55:01;;;;;;;2.00;1.08;;;17.40;78.00;;;;;;5028896;28;20074;-79
2024/04/06 04:57:28;;;;;;;1.23;0.80;;;17.40;78.00;;;;;;5022081;28;20029;-80
2024/04/06 04:59:54;;;;;;;2.85;1.20;;;17.40;78.00;;;;;;5021801;28;20032;-79
2024/04/06 05:02:20;;;;;;;1.50;0.90;;;17.40;77.90;;;;;;5022746;28;20100;-79
2024/04/06 05:04:45;;;;;;;2.67;1.23;;;17.40;77.90;;;;;;5018271;28;20490;-79
2024/04/06 05:07:12;;;;;;;2.27;1.07;;;17.40;77.90;;;;;;5024319;28;20172;-79
2024/04/06 05:09:38;;;;;;;2.28;1.08;;;17.40;77.90;;;;;;5016279;28;20025;-79
2024/04/06 05:12:04;;;;;;;2.67;1.00;;;17.40;77.90;;;;;;5021903;28;20037;-80
2024/04/06 05:14:30;;;;;;;2.17;0.90;;;17.40;77.80;;;;;;5020191;28;20029;-79
2024/04/06 05:16:56;;;;;;;2.27;0.90;;;17.40;77.90;;;;;;5026697;28;20054;-79
2024/04/06 05:19:22;;;;;;;1.58;0.98;;;17.40;77.90;;;;;;5019774;28;20152;-79
2024/04/06 05:21:48;;;;;;;1.58;1.00;;;17.40;77.80;;;;;;5026393;28;20048;-79
2024/04/06 05:24:14;;;;;;;1.67;1.20;;;17.40;77.80;;;;;;5025261;28;20078;-80
2024/04/06 05:26:41;;;;;;;1.33;0.90;;;17.40;77.80;;;;;;5028479;28;20033;-80
2024/04/06 05:29:08;;;;;;;1.15;1.00;;;17.40;77.80;;;;;;5027105;28;20038;-80
2024/04/06 05:31:34;;;;;;;;;;;17.40;77.80;;;;;;5021022;28;20036;-80
2024/04/06 05:34:00;;;;;;;3.67;1.10;;;17.50;77.80;;;;;;5019874;28;19909;-79
2024/04/06 05:36:26;;;;;;;1.45;0.73;;;17.40;77.80;;;;;;5024898;28;20036;-80
2024/04/06 05:38:52;;;;;;;1.57;0.90;;;17.50;77.80;;;;;;5017955;28;20037;-80
2024/04/06 05:41:18;;;;;;;1.83;1.05;;;17.40;77.70;;;;;;5021005;28;20056;-79
2024/04/06 05:43:44;;;;;;;2.37;0.93;;;17.40;77.60;;;;;;5020582;28;20064;-79
2024/04/06 05:46:10;;;;;;;0.90;0.70;;;17.50;77.60;;;;;;5026266;28;20159;-79
2024/04/06 05:48:37;;;;;;;2.13;0.93;;;17.50;77.60;;;;;;5026283;28;20037;-79
2024/04/06 05:51:03;;;;;;;0.93;0.88;;;17.50;77.50;;;;;;5026847;28;20740;-79
2024/04/06 05:53:29;;;;;;;1.00;0.73;;;17.50;77.40;;;;;;5020414;28;20036;-79
2024/04/06 05:55:55;;;;;;;1.13;0.80;;;17.50;77.40;;;;;;5025260;28;20173;-80
2024/04/06 05:58:21;;;;;;;1.17;0.90;;;17.60;77.20;;;;;;5027941;28;20267;-79
2024/04/06 06:00:49;;;;;;;2.27;0.97;;;17.60;77.20;;;;;;5024089;28;20211;-79
2024/04/06 06:03:15;;;;;;;2.35;0.90;;;17.60;77.10;;;;;;5023759;28;20534;-79
2024/04/06 06:05:40;;;;;;;1.50;1.07;;;17.60;77.00;;;;;;5026845;28;20082;-79
2024/04/06 06:08:07;;;;;;;1.60;0.97;;;17.60;76.90;;;;;;5024031;28;20036;-80
2024/04/06 06:10:33;;;;;;;1.05;0.88;;;17.60;76.90;;;;;;5032357;28;20466;-80
2024/04/06 06:12:59;;;;;;;1.80;0.65;;;17.70;76.80;;;;;;5029760;28;20445;-79
2024/04/06 06:15:25;;;;;;;2.95;0.93;;;17.70;76.60;;;;;;5031875;28;20160;-79
2024/04/06 06:17:51;;;;;;;1.58;0.90;;;17.70;76.50;;;;;;5028290;28;20040;-79
2024/04/06 06:20:17;;;;;;;3.57;1.30;;;17.70;76.60;;;;;;5016343;28;20046;-79
2024/04/06 06:22:43;;;;;;;1.60;0.70;;;17.70;76.70;;;;;;5023818;28;20022;-80
2024/04/06 06:25:09;;;;;;;1.47;1.00;;;17.70;76.50;;;;;;5028936;28;20073;-79
2024/04/06 06:27:35;;;;;;;1.80;1.00;;;17.80;76.30;;;;;;5025320;28;20475;-79
2024/04/06 06:30:01;;;;;;;1.83;0.93;;;17.80;76.20;;;;;;5028382;28;20026;-79
2024/04/06 06:32:27;;;;;;;1.20;0.75;;;17.80;76.10;;;;;;5025811;28;20021;-79
2024/04/06 06:34:53;;;;;;;2.38;0.65;;;17.90;76.10;;;;;;5029448;28;20033;-79
2024/04/06 06:37:19;;;;;;;2.10;0.80;;;18.00;75.80;;;;;;5024949;28;20343;-79
2024/04/06 06:39:45;;;;;;;1.33;0.75;;;18.00;75.80;;;;;;5030443;28;20030;-79
2024/04/06 06:42:11;;;;;;;3.08;0.88;;;18.10;75.70;;;;;;5028588;28;20455;-79
2024/04/06 06:44:38;;;;;;;0.77;0.65;;;18.20;75.50;;;;;;5030230;28;20032;-78
2024/04/06 06:47:05;;;;;;;1.77;0.93;;;18.60;73.90;;;;;;5020991;28;20060;-81
2024/04/06 06:49:31;;;;;;;1.48;1.00;;;19.00;72.70;;;;;;5028004;28;20029;-80
2024/04/06 06:51:58;;;;;;;2.45;0.95;;;19.00;71.70;;;;;;5032168;28;20103;-81
2024/04/06 06:54:26;;;;;;;2.92;1.23;;;19.00;72.00;;;;;;5032220;28;20119;-80
2024/04/06 06:56:52;;;;;;;3.38;0.98;;;19.10;72.00;;;;;;5031631;28;20025;-81
2024/04/06 06:59:17;;;;;;;1.70;0.90;;;19.50;70.90;;;;;;5029094;28;20052;-81
2024/04/06 07:01:43;;;;;;;2.33;0.88;;;19.90;69.80;;;;;;5030697;28;20030;-81
2024/04/06 07:04:09;;;;;;;0.97;0.80;;;20.10;69.10;;;;;;5027894;28;20095;-81
2024/04/06 07:06:35;;;;;;;2.45;1.13;;;20.20;68.80;;;;;;5032275;28;20481;-81
2024/04/06 07:09:03;;;;;;;4.47;0.70;;;20.10;69.00;;;;;;5030947;28;20446;-81
2024/04/06 07:11:30;;;;;;;2.55;0.90;;;20.10;68.80;;;;;;5032018;28;20454;-81
2024/04/06 07:13:56;;;;;;;3.15;0.90;;;20.30;68.40;;;;;;5021612;28;20430;-80
2024/04/06 07:16:25;;;;;;;4.95;0.90;;;20.50;67.80;;;;;;5028203;28;20069;-80
2024/04/06 07:18:51;;;;;;;1.63;0.88;;;20.50;67.70;;;;;;5022497;28;20072;-81
2024/04/06 07:21:17;;;;;;;2.33;1.00;;;20.00;69.10;;;;;;5020370;28;20102;-80
2024/04/06 07:23:44;;;;;;;4.55;0.82;;;20.00;69.50;;;;;;5020523;28;20040;-80
2024/04/06 07:26:10;;;;;;;4.47;1.15;;;20.60;67.90;;;;;;5028919;28;20068;-80
2024/04/06 07:28:36;;;;;;;4.30;0.98;;;21.10;66.30;;;;;;5031583;28;20063;-81
2024/04/06 07:31:06;;;;;;;1.88;1.20;;;21.30;65.70;;;;;;5031501;28;20029;-82
2024/04/06 07:33:33;;;;;;;3.55;1.35;;;21.50;65.10;;;;;;5031948;28;20036;-82
2024/04/06 07:35:59;;;;;;;5.78;1.10;;;21.60;64.80;;;;;;5031757;28;20026;-82
2024/04/06 07:38:28;;;;;;;4.63;1.10;;;21.70;64.40;;;;;;5029103;28;20076;-82
2024/04/06 07:41:04;;;;;;;2.03;1.10;;;22.00;63.70;;;;;;5027526;28;20038;-81
2024/04/06 07:43:30;;;;;;;4.28;1.00;;;22.10;63.40;;;;;;5030681;28;20029;-82
2024/04/06 07:45:56;;;;;;;1.95;1.30;;;22.20;63.00;;;;;;5030002;28;20029;-80
2024/04/06 07:48:23;;;;;;;4.38;1.17;;;22.40;62.50;;;;;;5033020;28;20414;-80
2024/04/06 07:50:49;;;;;;;;;;;22.60;61.70;;;;;;5026677;28;20060;-82
2024/04/06 07:53:15;;;;;;;6.20;1.08;;;22.90;61.00;;;;;;5023953;28;20000;-82
2024/04/06 07:55:41;;;;;;;7.63;1.15;;;23.00;60.60;;;;;;5027028;28;20037;-82
2024/04/06 07:58:07;;;;;;;3.60;1.20;;;23.00;61.10;;;;;;5024988;28;20091;-86
2024/04/06 08:00:33;;;;;;;6.93;1.35;;;23.10;60.70;;;;;;5024314;28;20029;-82
2024/04/06 08:02:59;;;;;;;;;;;23.40;60.10;;;;;;5031091;28;20477;-81
2024/04/06 08:05:25;;;;;;;5.85;1.42;;;23.60;59.40;;;;;;5022317;28;19909;-81
2024/04/06 08:07:51;;;;;;;4.97;1.25;;;23.70;59.10;;;;;;5028451;28;20067;-81
2024/04/06 08:10:18;;;;;;;3.33;1.10;;;23.80;58.90;;;;;;5015562;28;20115;-81
2024/04/06 08:12:46;;;;;;;3.95;1.20;;;23.70;59.20;;;;;;5025746;28;20490;-81
2024/04/06 08:15:12;;;;;;;2.80;0.98;;;23.50;59.80;;;;;;5013793;28;20022;-81
2024/04/06 08:17:42;;;;;;;;;;;23.70;59.30;;;;;;5027651;28;20415;-81
2024/04/06 08:20:08;;;;;;;6.57;1.50;;;23.90;59.00;;;;;;5029846;28;19924;-80
2024/04/06 08:22:38;;;;;;;;;;;23.40;60.00;;;;;;5021843;28;20702;-80
2024/04/06 08:25:05;;;;;;;7.85;1.65;;;22.50;62.60;;;;;;5025112;28;19915;-81
2024/04/06 08:27:31;;;;;;;;;;;22.00;64.30;;;;;;5024116;28;20029;-81
2024/04/06 08:29:57;;;;;;;;;;;21.70;65.40;;;;;;5028813;28;20366;-81
2024/04/06 08:32:22;;;;;;;4.50;1.55;;;21.70;65.70;;;;;;5028842;28;19944;-81
2024/04/06 08:34:54;;;;;;;4.85;1.33;;;22.10;65.00;;;;;;5022384;28;20071;-81
2024/04/06 08:37:24;;;;;;;13.95;1.98;;;23.10;62.20;;;;;;5018938;28;20037;-81
2024/04/06 08:39:50;;;;;;;13.50;1.67;;;24.10;59.20;;;;;;5022307;28;20329;-81
2024/04/06 08:42:23;;;;;;;4.63;1.75;;;24.40;58.00;;;;;;5030216;28;20519;-81
2024/04/06 08:44:50;;;;;;;7.28;1.25;;;24.90;56.80;;;;;;5021202;28;20033;-81
2024/04/06 08:47:19;;;;;;;10.65;1.73;;;25.30;55.60;;;;;;5019982;28;20044;-81
2024/04/06 08:49:46;;;;;;;8.20;1.67;;;25.50;54.80;;;;;;5019825;28;20034;-81
2024/04/06 08:52:13;;;;;;;12.60;3.58;;;25.60;54.50;;;;;;5029133;28;20021;-80
2024/04/06 08:54:40;;;;;;;19.25;4.55;;;25.60;54.60;;;;;;5029770;28;20038;-83
2024/04/06 08:57:06;;;;;;;21.63;5.90;;;24.70;56.60;;;;;;5025697;28;20029;-80
2024/04/06 08:59:33;;;;;;;25.73;8.88;;;24.00;58.80;;;;;;5029097;28;20052;-80
2024/04/06 09:01:59;;;;;;;;;;;23.80;59.60;;;;;;5029286;28;20060;-79
2024/04/06 09:04:25;;;;;;;25.75;8.00;;;24.20;58.50;;;;;;5029166;28;19915;-79
2024/04/06 09:06:51;;;;;;;23.63;8.20;;;24.10;59.00;;;;;;5022961;28;20021;-79
2024/04/06 09:09:17;;;;;;;24.02;8.95;;;23.80;59.60;;;;;;5029275;28;20083;-80
2024/04/06 09:11:44;;;;;;;27.38;9.25;;;23.10;61.90;;;;;;5035242;28;20025;-80
2024/04/06 09:14:10;;;;;;;24.17;8.43;;;22.50;63.70;;;;;;5029729;28;20145;-78
2024/04/06 09:16:38;;;;;;;29.05;8.55;;;22.20;64.90;;;;;;5029131;28;20051;-79
2024/04/06 09:19:05;;;;;;;23.63;8.43;;;22.00;65.80;;;;;;5024517;28;20053;-80
2024/04/06 09:21:32;;;;;;;25.02;9.05;;;22.00;65.90;;;;;;5016568;28;20407;-79
2024/04/06 09:24:00;;;;;;;29.60;8.38;;;22.00;65.70;;;;;;5020119;28;20096;-79
2024/04/06 09:26:33;;;;;;;19.95;7.47;;;22.30;65.30;;;;;;5019800;28;20481;-80
2024/04/06 09:29:00;;;;;;;22.50;8.10;;;22.40;65.10;;;;;;5019985;28;20030;-80
2024/04/06 09:31:27;;;;;;;19.08;8.68;;;22.40;64.80;;;;;;5030140;28;20028;-80
2024/04/06 09:34:00;;;;;;;19.55;8.00;;;22.40;64.90;;;;;;5028066;28;20034;-80
2024/04/06 09:36:26;;;;;;;20.65;7.72;;;22.40;65.00;;;;;;5020370;28;20474;-79
2024/04/06 09:38:54;;;;;;;22.38;7.82;;;22.40;65.10;;;;;;5025517;28;20048;-80
2024/04/06 09:41:21;;;;;;;23.55;7.85;;;22.40;65.30;;;;;;5022955;28;20068;-80
2024/04/06 09:43:49;;;;;;;18.92;7.13;;;22.40;65.00;;;;;;5025158;28;20641;-79
2024/04/06 09:46:18;;;;;;;21.98;7.80;;;22.40;65.20;;;;;;5019791;28;20029;-80
2024/04/06 09:48:45;;;;;;;19.33;6.93;;;22.30;65.50;;;;;;5026536;28;20048;-79
2024/04/06 09:51:11;;;;;;;19.50;7.05;;;22.30;65.70;;;;;;5020276;28;20033;-79
2024/04/06 09:53:39;;;;;;;17.88;6.72;;;22.30;65.50;;;;;;5023758;28;20033;-79
2024/04/06 09:56:08;;;;;;;13.07;6.18;;;22.30;65.50;;;;;;5029583;28;20151;-79
2024/04/06 09:58:34;;;;;;;13.48;5.97;;;22.30;65.60;;;;;;5020768;28;20443;-80
2024/04/06 10:01:09;;;;;;;15.13;6.72;;;22.30;65.60;;;;;;5025959;28;20029;-79
2024/04/06 10:03:45;;;;;;;14.77;6.45;;;22.20;65.70;;;;;;5017671;28;20141;-79
2024/04/06 10:06:16;;;;;;;16.80;6.25;;;22.20;66.00;;;;;;5019307;28;20025;-79
2024/04/06 10:08:50;;;;;;;24.15;5.93;;;22.30;65.70;;;;;;5016799;28;20034;-78
2024/04/06 10:11:24;;;;;;;11.45;5.65;;;22.70;64.60;;;;;;5019100;28;20044;-78
2024/04/06 10:13:57;;;;;;;11.40;5.57;;;22.70;64.50;;;;;;5023992;28;20025;-78
2024/04/06 10:16:26;;;;;;;13.82;5.88;;;23.20;63.30;;;;;;5019074;28;20101;-78
2024/04/06 10:18:55;;;;;;;11.98;5.10;;;23.40;62.50;;;;;;5016784;28;20041;-79
2024/04/06 10:21:21;;;;;;;14.15;5.93;;;22.90;63.70;;;;;;5019896;28;20128;-79
2024/04/06 10:23:47;;;;;;;11.82;5.50;;;22.70;64.50;;;;;;5028314;28;20117;-78
2024/04/06 10:26:14;;;;;;;13.40;5.07;;;22.80;64.30;;;;;;5026823;28;20113;-78
2024/04/06 10:28:41;;;;;;;16.45;5.70;;;22.80;64.30;;;;;;5023799;28;20124;-78
2024/04/06 10:31:06;;;;;;;;;;;22.80;64.40;;;;;;5020368;28;20030;-78
2024/04/06 10:33:32;;;;;;;11.85;4.40;;;22.50;65.20;;;;;;5025814;28;19909;-79
2024/04/06 10:35:58;;;;;;;18.60;5.20;;;22.30;65.90;;;;;;5016819;28;20034;-79
2024/04/06 10:38:24;;;;;;;10.15;4.13;;;22.30;66.00;;;;;;5020171;28;20034;-78
2024/04/06 10:40:50;;;;;;;11.43;5.88;;;22.20;66.60;;;;;;5018843;28;20038;-78
2024/04/06 10:43:16;;;;;;;9.88;4.28;;;22.30;66.50;;;;;;5017995;28;20040;-79
2024/04/06 10:45:42;;;;;;;9.95;4.68;;;22.30;66.30;;;;;;5018247;28;20034;-79
2024/04/06 10:48:08;;;;;;;13.83;4.20;;;22.40;66.20;;;;;;5024541;28;20090;-78
2024/04/06 10:50:34;;;;;;;10.23;4.63;;;22.30;66.60;;;;;;5028024;28;20082;-78
2024/04/06 10:53:00;;;;;;;9.10;4.35;;;22.30;66.50;;;;;;5024845;28;20037;-78
2024/04/06 10:55:27;;;;;;;11.63;4.55;;;22.50;66.20;;;;;;5022825;28;20040;-79
2024/04/06 10:57:55;;;;;;;7.85;4.43;;;22.70;65.40;;;;;;5025775;28;20112;-78
2024/04/06 11:00:22;;;;;;;12.60;4.18;;;23.00;64.60;;;;;;5028732;28;20371;-78
2024/04/06 11:02:48;;;;;;;;;;;23.30;63.90;;;;;;5016131;28;20030;-78
2024/04/06 11:05:13;;;;;;;12.18;4.40;;;23.40;63.30;;;;;;5014483;28;19909;-78
2024/04/06 11:07:41;;;;;;;12.53;4.90;;;23.30;63.50;;;;;;5028023;28;20444;-78
2024/04/06 11:10:09;;;;;;;9.98;4.38;;;23.10;64.30;;;;;;5017526;28;20030;-78
2024/04/06 11:12:39;;;;;;;8.95;3.80;;;23.60;63.10;;;;;;5022549;28;20025;-78
2024/04/06 11:15:09;;;;;;;8.63;4.43;;;24.00;61.70;;;;;;5024927;28;20383;-80
2024/04/06 11:17:35;;;;;;;13.57;4.22;;;24.00;61.60;;;;;;5029744;28;20045;-78
2024/04/06 11:20:04;;;;;;;14.90;4.53;;;24.00;61.70;;;;;;5030554;28;20073;-78
2024/04/06 11:22:30;;;;;;;11.48;4.15;;;23.90;61.90;;;;;;5017286;28;20026;-78
2024/04/06 11:24:56;;;;;;;9.05;4.00;;;23.70;62.50;;;;;;5021782;28;20022;-78
2024/04/06 11:27:23;;;;;;;;;;;23.90;62.00;;;;;;5024628;28;20042;-79
2024/04/06 11:29:50;;;;;;;9.82;3.50;;;24.00;61.80;;;;;;5023511;28;19916;-79
2024/04/06 11:32:19;;;;;;;;;;;23.90;62.00;;;;;;5032788;28;20419;-79
2024/04/06 11:34:46;;;;;;;10.07;3.63;;;23.50;63.10;;;;;;5024220;28;21516;-78
2024/04/06 11:37:12;;;;;;;6.03;3.00;;;23.30;63.70;;;;;;5032047;28;20053;-78
2024/04/06 11:39:38;;;;;;;12.98;4.82;;;23.20;64.20;;;;;;5030963;28;20501;-78
2024/04/06 11:42:05;;;;;;;8.30;3.38;;;23.20;64.30;;;;;;5021307;28;20029;-79
2024/04/06 11:44:31;;;;;;;8.60;3.50;;;23.10;64.60;;;;;;5020177;28;20107;-79
2024/04/06 11:46:57;;;;;;;7.43;3.30;;;23.00;65.10;;;;;;5031232;28;20061;-79
2024/04/06 11:49:24;;;;;;;8.07;3.58;;;22.90;65.40;;;;;;5031059;28;20285;-79
2024/04/06 11:51:49;;;;;;;6.57;3.30;;;22.90;65.40;;;;;;5030126;28;20030;-78
2024/04/06 11:54:15;;;;;;;7.22;3.10;;;22.80;65.60;;;;;;5023886;28;20375;-79
2024/04/06 11:56:41;;;;;;;7.70;3.33;;;22.90;65.70;;;;;;5021839;28;20038;-78
2024/04/06 11:59:07;;;;;;;8.45;3.40;;;22.80;65.60;;;;;;5025188;28;20056;-78
2024/04/06 12:01:35;;;;;;;8.70;3.17;;;22.80;65.80;;;;;;5019710;28;20034;-79
2024/04/06 12:04:02;;;;;;;7.07;3.47;;;22.80;65.90;;;;;;5030286;28;20026;-78
2024/04/06 12:06:28;;;;;;;10.27;2.95;;;22.80;66.00;;;;;;5030917;28;20031;-79
2024/04/06 12:08:54;;;;;;;6.63;3.25;;;22.80;66.10;;;;;;5032361;28;20032;-80
2024/04/06 12:11:20;;;;;;;6.95;3.00;;;22.80;66.20;;;;;;5031328;28;20049;-79
2024/04/06 12:13:46;;;;;;;10.27;3.38;;;22.80;66.30;;;;;;5030955;28;20033;-78
2024/04/06 12:16:12;;;;;;;6.63;2.75;;;22.80;66.50;;;;;;5026841;28;20368;-79
2024/04/06 12:18:38;;;;;;;6.55;2.92;;;22.70;66.70;;;;;;5021264;28;20044;-79
2024/04/06 12:21:04;;;;;;;7.50;3.10;;;22.70;66.80;;;;;;5020808;28;20318;-80
2024/04/06 12:23:30;;;;;;;8.77;3.67;;;22.80;67.00;;;;;;5040559;28;20153;-78
2024/04/06 12:25:57;;;;;;;5.38;3.10;;;22.80;66.90;;;;;;5031151;28;20493;-78
2024/04/06 12:28:23;;;;;;;;;;;22.80;67.10;;;;;;5030933;28;20044;-78
2024/04/06 12:30:49;;;;;;;;;;;22.90;67.30;;;;;;5022147;28;19909;-78
2024/04/06 12:33:16;;;;;;;7.05;2.53;;;22.90;67.30;;;;;;5024031;28;19925;-79
2024/04/06 12:35:47;;;;;;;7.93;2.80;;;22.80;67.20;;;;;;5021430;28;20026;-78
2024/04/06 12:38:14;;;;;;;8.32;2.90;;;22.80;67.60;;;;;;5030558;28;20732;-78
2024/04/06 12:40:40;;;;;;;7.82;2.50;;;22.70;67.90;;;;;;5019650;28;20037;-78
2024/04/06 12:43:06;;;;;;;6.63;2.95;;;22.60;68.20;;;;;;5019380;28;20025;-79
2024/04/06 12:45:32;;;;;;;5.35;2.70;;;22.60;68.20;;;;;;5023628;28;20029;-78